createdAt,value
2019-04-03T00:04:00.760Z,95252.80
2019-04-03T00:06:29.192Z,95257.02
2019-04-03T00:08:57.731Z,95244.22
2019-04-03T00:14:00.508Z,95245.27
2019-04-03T00:16:29.008Z,95250.45
2019-04-03T00:18:57.472Z,95243.63
2019-04-03T00:21:25.864Z,95248.68
2019-04-03T00:23:54.284Z,95238.46
2019-04-03T00:26:22.804Z,95244.59
2019-04-03T00:29:12.158Z,95244.25
2019-04-03T00:31:40.559Z,95242.61
2019-04-03T00:34:08.964Z,95241.00
2019-04-03T00:39:10.976Z,95235.89
2019-04-03T00:41:39.377Z,95237.44
2019-04-03T00:44:07.804Z,95233.28
2019-04-03T00:46:36.237Z,95230.25
2019-04-03T00:49:04.598Z,95226.12
2019-04-03T00:54:06.823Z,95223.03
2019-04-03T00:59:28.353Z,95226.48
2019-04-03T01:01:57.171Z,95216.77
2019-04-03T01:04:28.950Z,95221.12
2019-04-03T01:06:58.672Z,95217.00
2019-04-03T01:09:29.138Z,95215.88
2019-04-03T01:11:57.332Z,95212.41
2019-04-03T01:14:25.732Z,95217.14
2019-04-03T01:19:27.882Z,95218.83
2019-04-03T01:21:56.324Z,95213.41
2019-04-03T01:24:24.718Z,95214.16
2019-04-03T01:27:12.408Z,95205.89
2019-04-03T01:32:48.897Z,95203.30
2019-04-03T01:38:04.874Z,95201.16
2019-04-03T01:40:33.272Z,95188.81
2019-04-03T01:43:01.670Z,95191.62
2019-04-03T01:45:30.349Z,95186.66
2019-04-03T01:48:00.308Z,95183.09
2019-04-03T01:50:30.382Z,95172.59
2019-04-03T01:52:58.807Z,95174.38
2019-04-03T01:55:27.212Z,95175.62
2019-04-03T01:57:55.598Z,95172.95
2019-04-03T02:00:24.038Z,95175.02
2019-04-03T02:02:52.453Z,95168.90
2019-04-03T02:16:23.637Z,95161.73
2019-04-03T02:21:28.298Z,95157.64
2019-04-03T02:23:57.684Z,95161.35
2019-04-03T02:26:26.093Z,95163.42
2019-04-03T02:28:54.490Z,95156.45
2019-04-03T02:31:23.079Z,95158.84
2019-04-03T02:34:12.384Z,95154.53
2019-04-03T02:36:43.303Z,95162.23
2019-04-03T02:39:10.932Z,95149.57
2019-04-03T02:41:39.406Z,95154.08
2019-04-03T02:46:42.325Z,95153.77
2019-04-03T02:49:11.174Z,95150.83
2019-04-03T02:52:24.166Z,95151.42
2019-04-03T02:57:48.489Z,95148.17
2019-04-03T03:00:55.515Z,95147.65
2019-04-03T03:03:23.997Z,95145.30
2019-04-03T03:05:52.393Z,95144.25
2019-04-03T03:09:01.112Z,95147.13
2019-04-03T03:11:29.470Z,95136.63
2019-04-03T03:13:58.012Z,95136.84
2019-04-03T03:17:06.516Z,95136.98
2019-04-03T03:20:16.519Z,95135.06
2019-04-03T03:29:18.576Z,95125.03
2019-04-03T03:32:31.578Z,95133.70
2019-04-03T03:38:29.459Z,95120.20
2019-04-03T03:41:37.775Z,95123.87
2019-04-03T03:44:25.772Z,95119.09
2019-04-03T03:47:36.380Z,95112.12
2019-04-03T03:50:45.939Z,95110.28
2019-04-03T03:57:04.810Z,95111.46
2019-04-03T04:06:15.235Z,95096.98
2019-04-03T04:08:45.218Z,95094.92
2019-04-03T04:11:25.663Z,95092.62
2019-04-03T04:14:13.345Z,95098.34
2019-04-03T04:17:21.703Z,95098.81
2019-04-03T04:19:50.341Z,95098.75
2019-04-03T04:22:39.742Z,95095.64
2019-04-03T04:25:30.587Z,95098.48
2019-04-03T04:31:34.272Z,95093.09
2019-04-03T04:34:21.864Z,95094.92
2019-04-03T04:39:23.907Z,95093.05
2019-04-03T04:41:52.286Z,95092.99
2019-04-03T04:44:20.701Z,95092.60
2019-04-03T04:46:49.173Z,95085.09
2019-04-03T04:49:17.783Z,95086.09
2019-04-03T04:51:47.713Z,95076.81
2019-04-03T04:54:56.191Z,95080.19
2019-04-03T04:57:24.560Z,95077.25
2019-04-03T04:59:53.164Z,95070.91
2019-04-03T05:04:57.266Z,95075.20
2019-04-03T05:07:30.301Z,95072.95
2019-04-03T05:10:10.031Z,95077.33
2019-04-03T05:15:54.178Z,95082.09
2019-04-03T05:18:22.412Z,95083.42
2019-04-03T05:21:10.131Z,95082.38
2019-04-03T05:24:10.373Z,95083.98
2019-04-03T05:26:27.877Z,95090.33
2019-04-03T05:28:57.694Z,95091.87
2019-04-03T05:34:00.357Z,95089.14
2019-04-03T05:36:28.762Z,95090.98
2019-04-03T05:38:57.219Z,95092.00
2019-04-03T05:41:27.690Z,95082.72
2019-04-03T05:43:55.791Z,95087.30
2019-04-03T05:46:24.259Z,95086.48
2019-04-03T05:48:52.653Z,95087.01
2019-04-03T05:51:21.075Z,95091.38
2019-04-03T05:59:18.379Z,95092.33
2019-04-03T06:01:47.156Z,95093.14
2019-04-03T06:04:17.165Z,95089.55
2019-04-03T06:06:47.369Z,95083.78
2019-04-03T06:09:17.222Z,95077.33
2019-04-03T06:11:58.225Z,95080.17
2019-04-03T06:14:26.627Z,95074.20
2019-04-03T06:16:56.166Z,95081.12
2019-04-03T06:21:59.632Z,95079.84
2019-04-03T06:27:01.935Z,95072.13
2019-04-03T06:32:24.868Z,95061.63
2019-04-03T06:37:27.942Z,95055.44
2019-04-03T06:39:56.370Z,95052.56
2019-04-03T06:42:24.777Z,95049.45
2019-04-03T06:44:54.071Z,95053.65
2019-04-03T06:49:57.914Z,95046.73
2019-04-03T06:52:26.342Z,95051.83
2019-04-03T06:55:14.062Z,95044.52
2019-04-03T07:00:36.838Z,95038.56
2019-04-03T07:03:45.214Z,95035.25
2019-04-03T07:11:57.446Z,95034.88
2019-04-03T07:15:05.466Z,95035.41
2019-04-03T07:17:33.865Z,95032.06
2019-04-03T07:20:12.673Z,95028.50
2019-04-03T07:22:32.410Z,95026.30
2019-04-03T07:25:02.736Z,95026.05
2019-04-03T07:27:31.133Z,95024.28
2019-04-03T07:30:01.089Z,95028.92
2019-04-03T07:32:29.475Z,95031.14
2019-04-03T07:34:57.870Z,95032.31
2019-04-03T07:40:00.783Z,95022.42
2019-04-03T07:42:29.214Z,95027.00
2019-04-03T07:44:57.613Z,95027.86
2019-04-03T07:47:26.020Z,95029.34
2019-04-03T07:49:54.479Z,95024.37
2019-04-03T07:52:22.880Z,95025.98
2019-04-03T07:54:52.852Z,95030.86
2019-04-03T07:57:21.607Z,95028.84
2019-04-03T07:59:51.572Z,95030.03
2019-04-03T08:02:20.061Z,95025.13
2019-04-03T08:07:22.500Z,95017.38
2019-04-03T08:09:52.522Z,95019.64
2019-04-03T08:12:20.927Z,95021.96
2019-04-03T08:14:49.390Z,95023.83
2019-04-03T08:19:54.375Z,95016.24
2019-04-03T08:22:22.394Z,95019.84
2019-04-03T08:24:53.021Z,95016.05
2019-04-03T08:27:23.221Z,95012.69
2019-04-03T08:29:51.095Z,95013.51
2019-04-03T08:32:19.624Z,95004.63
2019-04-03T08:35:19.456Z,94995.49
2019-04-03T08:37:41.639Z,94994.42
2019-04-03T08:40:51.432Z,94992.20
2019-04-03T08:43:19.256Z,94996.42
2019-04-03T08:45:47.649Z,94996.38
2019-04-03T08:48:17.490Z,94990.94
2019-04-03T08:50:46.206Z,94983.52
2019-04-03T08:53:14.604Z,94979.89
2019-04-03T08:58:17.189Z,94978.97
2019-04-03T09:00:47.023Z,94975.11
2019-04-03T09:03:15.706Z,94972.89
2019-04-03T09:06:25.478Z,94963.50
2019-04-03T09:08:53.881Z,94961.30
2019-04-03T09:11:22.290Z,94951.25
2019-04-03T09:16:24.898Z,94951.84
2019-04-03T09:21:27.335Z,94941.42
2019-04-03T09:26:29.996Z,94938.12
2019-04-03T09:28:59.923Z,94937.11
2019-04-03T09:31:28.320Z,94930.51
2019-04-03T09:33:57.882Z,94931.98
2019-04-03T09:36:26.936Z,94925.14
2019-04-03T09:38:55.349Z,94919.10
2019-04-03T09:41:23.743Z,94914.90
2019-04-03T09:43:54.505Z,94905.62
2019-04-03T09:46:22.495Z,94904.05
2019-04-03T09:48:52.430Z,94905.23
2019-04-03T09:53:56.974Z,94891.93
2019-04-03T09:58:59.358Z,94879.72
2019-04-03T10:01:27.784Z,94869.31
2019-04-03T10:03:56.369Z,94863.45
2019-04-03T10:06:26.458Z,94861.60
2019-04-03T10:11:30.151Z,94858.96
2019-04-03T10:13:58.539Z,94846.88
2019-04-03T10:16:26.968Z,94846.08
2019-04-03T10:18:55.364Z,94844.23
2019-04-03T10:21:23.761Z,94827.05
2019-04-03T10:23:52.389Z,94827.31
2019-04-03T10:26:22.313Z,94826.24
2019-04-03T10:28:50.711Z,94828.13
2019-04-03T10:33:53.575Z,94821.45
2019-04-03T10:38:56.495Z,94808.01
2019-04-03T10:43:58.857Z,94809.33
2019-04-03T10:46:27.466Z,94807.20
2019-04-03T10:51:31.898Z,94806.06
2019-04-03T10:56:34.685Z,94787.99
2019-04-03T10:59:43.027Z,94781.52
2019-04-03T11:02:11.580Z,94783.66
2019-04-03T11:04:39.978Z,94776.92
2019-04-03T11:07:27.828Z,94774.23
2019-04-03T11:09:56.375Z,94769.92
2019-04-03T11:12:26.313Z,94771.26
2019-04-03T11:17:28.404Z,94758.30
2019-04-03T11:19:56.801Z,94755.56
2019-04-03T11:24:59.751Z,94757.31
2019-04-03T11:30:44.084Z,94750.52
2019-04-03T11:33:14.147Z,94752.91
2019-04-03T11:36:23.263Z,94752.66
2019-04-03T11:41:27.054Z,94733.66
2019-04-03T11:46:29.926Z,94726.46
2019-04-03T11:48:58.340Z,94727.47
2019-04-03T11:51:28.915Z,94720.45
2019-04-03T11:53:56.863Z,94721.72
2019-04-03T11:56:25.322Z,94723.27
2019-04-03T11:58:53.686Z,94727.00
2019-04-03T12:02:02.107Z,94714.00
2019-04-03T12:04:30.501Z,94715.82
2019-04-03T12:06:58.900Z,94707.73
2019-04-03T12:12:01.289Z,94696.86
2019-04-03T12:14:31.253Z,94691.37
2019-04-03T12:16:59.626Z,94698.44
2019-04-03T12:19:28.252Z,94690.25
2019-04-03T12:24:31.976Z,94683.08
2019-04-03T12:27:00.427Z,94678.41
2019-04-03T12:29:28.872Z,94673.00
2019-04-03T12:31:57.241Z,94669.75
2019-04-03T12:36:59.729Z,94661.09
2019-04-03T12:42:02.586Z,94654.23
2019-04-03T12:47:11.959Z,94641.14
2019-04-03T12:52:09.973Z,94631.95
2019-04-03T12:54:38.401Z,94624.36
2019-04-03T12:57:06.875Z,94626.95
2019-04-03T12:59:35.288Z,94626.97
2019-04-03T13:02:03.801Z,94611.56
2019-04-03T13:04:32.849Z,94621.95
2019-04-03T13:07:04.969Z,94610.83
2019-04-03T13:09:32.467Z,94615.54
2019-04-03T13:15:49.399Z,94606.75
2019-04-03T13:18:17.860Z,94611.09
2019-04-03T13:20:46.561Z,94607.14
2019-04-03T13:23:16.467Z,94607.30
2019-04-03T13:25:45.267Z,94599.55
2019-04-03T13:28:14.983Z,94597.50
2019-04-03T13:30:44.217Z,94594.86
2019-04-03T13:33:16.355Z,94601.16
2019-04-03T13:36:02.844Z,94577.79
2019-04-03T13:38:31.604Z,94589.31
2019-04-03T13:41:04.178Z,94585.65
2019-04-03T13:43:31.546Z,94581.73
2019-04-03T13:46:19.098Z,94581.68
2019-04-03T13:48:47.512Z,94579.75
2019-04-03T13:51:15.993Z,94583.23
2019-04-03T13:53:44.385Z,94579.17
2019-04-03T13:56:12.912Z,94577.92
2019-04-03T13:58:41.663Z,94569.92
2019-04-03T14:01:51.400Z,94570.58
2019-04-03T14:04:59.710Z,94569.05
2019-04-03T14:07:30.155Z,94565.23
2019-04-03T14:09:59.215Z,94568.06
2019-04-03T14:12:28.372Z,94574.69
2019-04-03T14:14:56.804Z,94574.06
2019-04-03T14:17:25.209Z,94582.01
2019-04-03T14:19:53.626Z,94585.05
2019-04-03T14:25:23.471Z,94569.64
2019-04-03T14:30:26.904Z,94564.59
2019-04-03T14:32:56.829Z,94574.83
2019-04-03T14:35:45.348Z,94573.24
2019-04-03T14:37:58.151Z,94569.23
2019-04-03T14:43:00.058Z,94568.27
2019-04-03T14:48:03.068Z,94567.81
2019-04-03T14:50:31.553Z,94565.97
2019-04-03T14:53:00.413Z,94572.44
2019-04-03T14:55:30.107Z,94566.56
2019-04-03T14:57:58.841Z,94571.69
2019-04-03T15:03:04.664Z,94562.04
2019-04-03T15:08:07.622Z,94564.79
2019-04-03T15:10:36.080Z,94556.48
2019-04-03T15:16:13.055Z,94564.28
2019-04-03T15:18:43.069Z,94566.72
2019-04-03T15:21:13.241Z,94562.42
2019-04-03T15:26:16.981Z,94553.84
2019-04-03T15:31:39.082Z,94548.00
2019-04-03T15:34:08.993Z,94553.11
2019-04-03T15:36:37.769Z,94546.41
2019-04-03T15:39:53.074Z,94546.95
2019-04-03T15:42:17.650Z,94542.13
2019-04-03T15:45:05.427Z,94541.86
2019-04-03T15:47:38.334Z,94538.93
2019-04-03T15:50:44.216Z,94537.59
2019-04-03T15:53:13.928Z,94540.83
2019-04-03T15:55:42.502Z,94540.34
2019-04-03T16:00:47.075Z,94533.08
2019-04-03T16:06:12.019Z,94541.41
2019-04-03T16:08:43.573Z,94538.48
2019-04-03T16:11:11.886Z,94540.62
2019-04-03T16:16:14.137Z,94529.08
2019-04-03T16:21:35.821Z,94526.15
2019-04-03T16:24:23.642Z,94528.00
2019-04-03T16:26:52.022Z,94524.52
2019-04-03T16:29:20.419Z,94525.06
2019-04-03T16:31:48.842Z,94527.19
2019-04-03T16:34:17.342Z,94531.75
2019-04-03T16:36:47.999Z,94525.57
2019-04-03T16:42:09.703Z,94525.05
2019-04-03T16:47:14.439Z,94526.91
2019-04-03T16:49:43.532Z,94530.38
2019-04-03T16:52:11.932Z,94521.23
2019-04-03T16:54:43.443Z,94531.65
2019-04-03T16:57:10.580Z,94525.50
2019-04-03T16:59:39.336Z,94533.25
2019-04-03T17:02:09.094Z,94533.23
2019-04-03T17:04:37.730Z,94532.15
2019-04-03T17:07:07.716Z,94538.02
2019-04-03T17:09:38.183Z,94531.87
2019-04-03T17:12:06.289Z,94530.78
2019-04-03T17:14:34.689Z,94528.63
2019-04-03T17:22:24.945Z,94521.86
2019-04-03T17:24:55.776Z,94521.30
2019-04-03T17:27:23.497Z,94519.70
2019-04-03T17:29:52.312Z,94513.01
2019-04-03T17:34:56.423Z,94518.04
2019-04-03T17:37:26.397Z,94526.31
2019-04-03T17:39:55.005Z,94520.42
2019-04-03T17:42:25.700Z,94523.34
2019-04-03T17:47:27.399Z,94527.28
2019-04-03T17:52:30.405Z,94527.73
2019-04-03T17:54:58.864Z,94532.00
2019-04-03T17:57:46.505Z,94537.59
2019-04-03T18:00:54.853Z,94538.09
2019-04-03T18:03:23.252Z,94544.48
2019-04-03T18:05:51.652Z,94541.50
2019-04-03T18:08:20.092Z,94543.91
2019-04-03T18:11:07.682Z,94540.16
2019-04-03T18:13:36.156Z,94549.27
2019-04-03T18:16:44.509Z,94550.31
2019-04-03T18:21:48.771Z,94558.56
2019-04-03T18:26:53.221Z,94564.05
2019-04-03T18:29:24.275Z,94558.63
2019-04-03T18:32:31.684Z,94566.56
2019-04-03T18:35:19.559Z,94565.16
2019-04-03T18:37:47.905Z,94564.28
2019-04-03T18:43:11.293Z,94570.59
2019-04-03T18:46:00.180Z,94568.93
2019-04-03T18:48:29.034Z,94564.88
2019-04-03T18:50:57.445Z,94569.69
2019-04-03T18:53:25.841Z,94565.38
2019-04-03T18:55:54.304Z,94565.66
2019-04-03T18:58:23.810Z,94561.61
2019-04-03T19:01:12.244Z,94563.41
2019-04-03T19:03:40.647Z,94569.58
2019-04-03T19:09:09.892Z,94571.70
2019-04-03T19:11:34.402Z,94574.37
2019-04-03T19:14:27.390Z,94577.04
2019-04-03T19:19:25.956Z,94568.67
2019-04-03T19:22:34.332Z,94568.94
2019-04-03T19:25:02.806Z,94559.55
2019-04-03T19:27:33.052Z,94559.52
2019-04-03T19:30:20.611Z,94559.77
2019-04-03T19:32:49.038Z,94561.91
2019-04-03T19:35:17.473Z,94561.89
2019-04-03T19:37:45.897Z,94565.63
2019-04-03T19:40:54.219Z,94559.44
2019-04-03T19:43:22.624Z,94553.80
2019-04-03T19:45:51.817Z,94561.78
2019-04-03T19:48:21.164Z,94564.71
2019-04-03T19:53:24.021Z,94564.45
2019-04-03T19:59:06.271Z,94567.60
2019-04-03T20:04:09.107Z,94564.04
2019-04-03T20:06:37.556Z,94562.68
2019-04-03T20:09:45.878Z,94567.75
2019-04-03T20:12:14.309Z,94559.48
2019-04-03T20:14:57.238Z,94562.37
2019-04-03T20:17:12.830Z,94561.27
2019-04-03T20:22:14.758Z,94562.29
2019-04-03T20:24:45.930Z,94564.63
2019-04-03T20:29:48.634Z,94564.97
2019-04-03T20:32:17.074Z,94564.39
2019-04-03T20:34:45.449Z,94561.66
2019-04-03T20:37:13.845Z,94558.17
2019-04-03T20:42:15.774Z,94562.95
2019-04-03T20:47:18.081Z,94562.62
2019-04-03T20:52:20.119Z,94556.95
2019-04-03T20:54:48.521Z,94560.63
2019-04-03T20:57:36.153Z,94564.56
2019-04-03T21:00:44.465Z,94561.84
2019-04-03T21:03:13.509Z,94563.92
2019-04-03T21:05:43.040Z,94564.92
2019-04-03T21:08:11.501Z,94560.04
2019-04-03T21:10:39.862Z,94562.88
2019-04-03T21:13:08.747Z,94556.88
2019-04-03T21:15:38.376Z,94547.45
2019-04-03T21:20:40.686Z,94557.98
2019-04-03T21:23:09.154Z,94560.29
2019-04-03T21:25:37.554Z,94563.09
2019-04-03T21:28:05.953Z,94573.34
2019-04-03T21:30:34.380Z,94573.11
2019-04-03T21:33:22.091Z,94586.21
2019-04-03T21:38:24.982Z,94586.61
2019-04-03T21:40:55.742Z,94583.27
2019-04-03T21:43:23.556Z,94607.06
2019-04-03T21:45:51.955Z,94631.39
2019-04-03T21:50:54.764Z,94627.37
2019-04-03T21:55:57.079Z,94655.52
2019-04-03T21:58:25.513Z,94661.70
2019-04-03T22:01:33.877Z,94660.55
2019-04-03T22:06:36.317Z,94666.27
2019-04-03T22:09:44.669Z,94672.09
2019-04-03T22:12:13.071Z,94667.38
2019-04-03T22:14:42.888Z,94669.22
2019-04-03T22:19:46.027Z,94687.79
2019-04-03T22:22:14.445Z,94687.11
2019-04-03T22:27:31.972Z,94685.89
2019-04-03T22:30:00.412Z,94695.54
2019-04-03T22:32:28.799Z,94709.67
2019-04-03T22:34:57.236Z,94717.11
2019-04-03T22:37:27.340Z,94713.66
2019-04-03T22:39:55.740Z,94713.20
2019-04-03T22:44:57.768Z,94709.59
2019-04-03T22:47:26.189Z,94706.71
2019-04-03T22:49:54.601Z,94713.80
2019-04-03T22:52:23.076Z,94710.10
2019-04-03T22:54:51.491Z,94729.94
2019-04-03T22:57:20.221Z,94733.31
2019-04-03T22:59:50.000Z,94732.89
2019-04-03T23:02:18.436Z,94727.13
2019-04-03T23:04:46.835Z,94726.17
2019-04-03T23:07:15.238Z,94721.45
2019-04-03T23:09:43.656Z,94723.47
2019-04-03T23:12:12.056Z,94719.18
2019-04-03T23:14:40.458Z,94718.75
2019-04-03T23:17:08.876Z,94724.12
2019-04-03T23:19:37.264Z,94726.77
2019-04-03T23:22:25.905Z,94721.77
2019-04-03T23:24:55.124Z,94719.69
2019-04-03T23:27:23.525Z,94707.10
2019-04-03T23:32:25.485Z,94703.13
2019-04-03T23:37:40.198Z,94698.47
2019-04-03T23:40:48.535Z,94704.67
2019-04-03T23:43:16.928Z,94702.82
2019-04-03T23:45:45.324Z,94682.56
2019-04-03T23:48:13.750Z,94684.26
2019-04-03T23:50:42.163Z,94682.56
2019-04-03T23:53:10.536Z,94681.60
2019-04-03T23:55:38.955Z,94671.95
2019-04-03T23:58:09.001Z,94666.95
